sensor_id;sensor_type;location;lat;lon;timestamp;P1;durP1;ratioP1;P2;durP2;ratioP2
5345;SDS011;2695;49.444;11.054;2022-07-23T00:00:48;12.60;;;8.10;;
5345;SDS011;2695;49.444;11.054;2022-07-23T00:03:16;12.00;;;8.50;;
5345;SDS011;2695;49.444;11.054;2022-07-23T00:05:44;12.60;;;8.50;;
5345;SDS011;2695;49.444;11.054;2022-07-23T00:08:11;11.53;;;7.80;;
5345;SDS011;2695;49.444;11.054;2022-07-23T00:10:40;12.00;;;7.97;;
5345;SDS011;2695;49.444;11.054;2022-07-23T00:13:07;9.33;;;8.27;;
5345;SDS011;2695;49.444;11.054;2022-07-23T00:15:37;13.63;;;9.10;;
5345;SDS011;2695;49.444;11.054;2022-07-23T00:18:05;11.67;;;8.70;;
5345;SDS011;2695;49.444;11.054;2022-07-23T00:20:33;9.00;;;8.10;;
5345;SDS011;2695;49.444;11.054;2022-07-23T00:23:00;14.03;;;9.40;;
5345;SDS011;2695;49.444;11.054;2022-07-23T00:25:28;11.40;;;10.20;;
5345;SDS011;2695;49.444;11.054;2022-07-23T00:27:57;15.00;;;9.13;;
5345;SDS011;2695;49.444;11.054;2022-07-23T00:30:26;11.23;;;9.23;;
5345;SDS011;2695;49.444;11.054;2022-07-23T00:32:58;12.77;;;9.17;;
5345;SDS011;2695;49.444;11.054;2022-07-23T00:35:28;23.13;;;9.70;;
5345;SDS011;2695;49.444;11.054;2022-07-23T00:37:57;15.33;;;9.60;;
5345;SDS011;2695;49.444;11.054;2022-07-23T00:40:26;14.47;;;9.47;;
5345;SDS011;2695;49.444;11.054;2022-07-23T00:42:55;13.97;;;9.80;;
5345;SDS011;2695;49.444;11.054;2022-07-23T00:45:23;20.57;;;9.80;;
5345;SDS011;2695;49.444;11.054;2022-07-23T00:47:51;11.60;;;9.33;;
5345;SDS011;2695;49.444;11.054;2022-07-23T00:50:20;13.23;;;8.90;;
5345;SDS011;2695;49.444;11.054;2022-07-23T00:52:48;13.30;;;8.93;;
5345;SDS011;2695;49.444;11.054;2022-07-23T00:55:17;17.10;;;9.10;;
5345;SDS011;2695;49.444;11.054;2022-07-23T00:57:45;11.20;;;8.30;;
5345;SDS011;2695;49.444;11.054;2022-07-23T01:00:13;10.60;;;8.80;;
5345;SDS011;2695;49.444;11.054;2022-07-23T01:02:42;12.30;;;9.40;;
5345;SDS011;2695;49.444;11.054;2022-07-23T01:05:12;11.40;;;8.50;;
5345;SDS011;2695;49.444;11.054;2022-07-23T01:07:42;10.13;;;8.63;;
5345;SDS011;2695;49.444;11.054;2022-07-23T01:10:11;13.33;;;8.57;;
5345;SDS011;2695;49.444;11.054;2022-07-23T01:12:57;10.03;;;8.17;;
5345;SDS011;2695;49.444;11.054;2022-07-23T01:15:25;9.93;;;8.20;;
5345;SDS011;2695;49.444;11.054;2022-07-23T01:17:54;10.30;;;8.93;;
5345;SDS011;2695;49.444;11.054;2022-07-23T01:20:22;13.90;;;8.73;;
5345;SDS011;2695;49.444;11.054;2022-07-23T01:22:51;14.93;;;8.20;;
5345;SDS011;2695;49.444;11.054;2022-07-23T01:25:20;12.90;;;8.53;;
5345;SDS011;2695;49.444;11.054;2022-07-23T01:27:48;9.10;;;7.70;;
5345;SDS011;2695;49.444;11.054;2022-07-23T01:30:18;9.67;;;8.40;;
5345;SDS011;2695;49.444;11.054;2022-07-23T01:32:46;11.03;;;9.27;;
5345;SDS011;2695;49.444;11.054;2022-07-23T01:35:14;14.40;;;9.20;;
5345;SDS011;2695;49.444;11.054;2022-07-23T01:37:42;13.70;;;9.40;;
5345;SDS011;2695;49.444;11.054;2022-07-23T01:40:11;12.03;;;9.57;;
5345;SDS011;2695;49.444;11.054;2022-07-23T01:42:39;12.40;;;10.73;;
5345;SDS011;2695;49.444;11.054;2022-07-23T01:45:08;15.07;;;9.37;;
5345;SDS011;2695;49.444;11.054;2022-07-23T01:47:36;14.20;;;10.63;;
5345;SDS011;2695;49.444;11.054;2022-07-23T01:50:04;14.20;;;10.27;;
5345;SDS011;2695;49.444;11.054;2022-07-23T01:52:33;13.30;;;10.73;;
5345;SDS011;2695;49.444;11.054;2022-07-23T01:55:01;15.27;;;9.63;;
5345;SDS011;2695;49.444;11.054;2022-07-23T01:57:30;12.53;;;9.37;;
5345;SDS011;2695;49.444;11.054;2022-07-23T01:59:58;15.77;;;10.13;;
5345;SDS011;2695;49.444;11.054;2022-07-23T02:02:26;12.50;;;9.37;;
5345;SDS011;2695;49.444;11.054;2022-07-23T02:04:54;9.90;;;7.80;;
5345;SDS011;2695;49.444;11.054;2022-07-23T02:07:22;14.07;;;9.83;;
5345;SDS011;2695;49.444;11.054;2022-07-23T02:09:50;12.73;;;9.40;;
5345;SDS011;2695;49.444;11.054;2022-07-23T02:12:18;11.87;;;9.70;;
5345;SDS011;2695;49.444;11.054;2022-07-23T02:14:47;13.07;;;10.03;;
5345;SDS011;2695;49.444;11.054;2022-07-23T02:17:15;12.60;;;9.00;;
5345;SDS011;2695;49.444;11.054;2022-07-23T02:19:43;10.50;;;8.90;;
5345;SDS011;2695;49.444;11.054;2022-07-23T02:22:11;15.80;;;8.83;;
5345;SDS011;2695;49.444;11.054;2022-07-23T02:24:39;16.23;;;9.90;;
5345;SDS011;2695;49.444;11.054;2022-07-23T02:27:07;11.33;;;9.30;;
5345;SDS011;2695;49.444;11.054;2022-07-23T02:29:35;19.30;;;12.23;;
5345;SDS011;2695;49.444;11.054;2022-07-23T02:32:04;19.90;;;12.07;;
5345;SDS011;2695;49.444;11.054;2022-07-23T02:34:33;26.87;;;10.60;;
5345;SDS011;2695;49.444;11.054;2022-07-23T02:37:01;18.30;;;10.77;;
5345;SDS011;2695;49.444;11.054;2022-07-23T02:39:28;13.77;;;9.33;;
5345;SDS011;2695;49.444;11.054;2022-07-23T02:41:56;18.90;;;10.10;;
5345;SDS011;2695;49.444;11.054;2022-07-23T02:44:24;20.70;;;11.60;;
5345;SDS011;2695;49.444;11.054;2022-07-23T02:46:52;15.10;;;10.63;;
5345;SDS011;2695;49.444;11.054;2022-07-23T02:49:22;14.23;;;11.40;;
5345;SDS011;2695;49.444;11.054;2022-07-23T02:51:50;12.83;;;10.50;;
5345;SDS011;2695;49.444;11.054;2022-07-23T02:54:18;15.87;;;10.40;;
5345;SDS011;2695;49.444;11.054;2022-07-23T02:56:46;13.13;;;8.93;;
5345;SDS011;2695;49.444;11.054;2022-07-23T02:59:16;12.80;;;10.03;;
5345;SDS011;2695;49.444;11.054;2022-07-23T03:01:45;11.17;;;9.10;;
5345;SDS011;2695;49.444;11.054;2022-07-23T03:04:13;12.43;;;10.03;;
5345;SDS011;2695;49.444;11.054;2022-07-23T03:06:42;15.00;;;9.67;;
5345;SDS011;2695;49.444;11.054;2022-07-23T03:09:10;12.20;;;10.07;;
5345;SDS011;2695;49.444;11.054;2022-07-23T03:11:38;14.70;;;8.87;;
5345;SDS011;2695;49.444;11.054;2022-07-23T03:14:06;10.80;;;9.60;;
5345;SDS011;2695;49.444;11.054;2022-07-23T03:16:34;11.87;;;9.07;;
5345;SDS011;2695;49.444;11.054;2022-07-23T03:19:02;10.47;;;9.40;;
5345;SDS011;2695;49.444;11.054;2022-07-23T03:21:32;12.27;;;8.50;;
5345;SDS011;2695;49.444;11.054;2022-07-23T03:24:01;12.27;;;9.30;;
5345;SDS011;2695;49.444;11.054;2022-07-23T03:26:29;13.20;;;9.17;;
5345;SDS011;2695;49.444;11.054;2022-07-23T03:28:57;13.73;;;10.20;;
5345;SDS011;2695;49.444;11.054;2022-07-23T03:31:28;10.00;;;8.27;;
5345;SDS011;2695;49.444;11.054;2022-07-23T03:33:56;16.50;;;9.70;;
5345;SDS011;2695;49.444;11.054;2022-07-23T03:36:24;12.40;;;10.20;;
5345;SDS011;2695;49.444;11.054;2022-07-23T03:38:53;13.57;;;9.27;;
5345;SDS011;2695;49.444;11.054;2022-07-23T03:41:22;12.47;;;9.93;;
5345;SDS011;2695;49.444;11.054;2022-07-23T03:43:50;14.70;;;9.97;;
5345;SDS011;2695;49.444;11.054;2022-07-23T03:46:18;11.23;;;8.67;;
5345;SDS011;2695;49.444;11.054;2022-07-23T03:48:46;11.83;;;10.30;;
5345;SDS011;2695;49.444;11.054;2022-07-23T03:51:18;15.50;;;10.33;;
5345;SDS011;2695;49.444;11.054;2022-07-23T03:53:45;17.37;;;10.43;;
5345;SDS011;2695;49.444;11.054;2022-07-23T03:56:15;12.20;;;9.30;;
5345;SDS011;2695;49.444;11.054;2022-07-23T03:58:44;10.03;;;8.67;;
5345;SDS011;2695;49.444;11.054;2022-07-23T04:01:12;12.57;;;9.63;;
5345;SDS011;2695;49.444;11.054;2022-07-23T04:03:40;12.77;;;10.60;;
5345;SDS011;2695;49.444;11.054;2022-07-23T04:06:09;13.50;;;10.17;;
5345;SDS011;2695;49.444;11.054;2022-07-23T04:08:37;12.23;;;9.70;;
5345;SDS011;2695;49.444;11.054;2022-07-23T04:11:05;14.23;;;10.27;;
5345;SDS011;2695;49.444;11.054;2022-07-23T04:13:33;12.80;;;9.37;;
5345;SDS011;2695;49.444;11.054;2022-07-23T04:16:03;12.63;;;10.03;;
5345;SDS011;2695;49.444;11.054;2022-07-23T04:18:32;12.27;;;10.30;;
5345;SDS011;2695;49.444;11.054;2022-07-23T04:21:00;12.80;;;9.93;;
5345;SDS011;2695;49.444;11.054;2022-07-23T04:23:28;18.27;;;9.57;;
5345;SDS011;2695;49.444;11.054;2022-07-23T04:25:56;11.97;;;9.83;;
5345;SDS011;2695;49.444;11.054;2022-07-23T04:28:24;12.20;;;9.03;;
5345;SDS011;2695;49.444;11.054;2022-07-23T04:30:52;12.97;;;9.77;;
5345;SDS011;2695;49.444;11.054;2022-07-23T04:33:24;8.80;;;7.90;;
5345;SDS011;2695;49.444;11.054;2022-07-23T04:35:52;11.10;;;8.40;;
5345;SDS011;2695;49.444;11.054;2022-07-23T04:38:20;10.80;;;9.70;;
5345;SDS011;2695;49.444;11.054;2022-07-23T04:40:48;10.67;;;8.77;;
5345;SDS011;2695;49.444;11.054;2022-07-23T04:43:18;13.60;;;10.10;;
5345;SDS011;2695;49.444;11.054;2022-07-23T04:45:47;12.73;;;9.13;;
5345;SDS011;2695;49.444;11.054;2022-07-23T04:48:19;10.30;;;9.20;;
5345;SDS011;2695;49.444;11.054;2022-07-23T04:50:48;12.73;;;9.27;;
5345;SDS011;2695;49.444;11.054;2022-07-23T04:53:16;12.07;;;9.40;;
5345;SDS011;2695;49.444;11.054;2022-07-23T04:55:46;9.73;;;7.60;;
5345;SDS011;2695;49.444;11.054;2022-07-23T04:58:14;10.43;;;8.30;;
5345;SDS011;2695;49.444;11.054;2022-07-23T05:00:42;9.37;;;7.27;;
5345;SDS011;2695;49.444;11.054;2022-07-23T05:03:09;12.80;;;8.02;;
5345;SDS011;2695;49.444;11.054;2022-07-23T05:05:37;14.90;;;7.82;;
5345;SDS011;2695;49.444;11.054;2022-07-23T05:08:07;10.90;;;6.65;;
5345;SDS011;2695;49.444;11.054;2022-07-23T05:10:35;11.93;;;6.15;;
5345;SDS011;2695;49.444;11.054;2022-07-23T05:13:03;8.18;;;6.70;;
5345;SDS011;2695;49.444;11.054;2022-07-23T05:15:31;8.43;;;5.72;;
5345;SDS011;2695;49.444;11.054;2022-07-23T05:17:59;6.70;;;6.00;;
5345;SDS011;2695;49.444;11.054;2022-07-23T05:20:27;10.20;;;7.30;;
5345;SDS011;2695;49.444;11.054;2022-07-23T05:22:55;9.73;;;6.53;;
5345;SDS011;2695;49.444;11.054;2022-07-23T05:25:24;7.93;;;6.50;;
5345;SDS011;2695;49.444;11.054;2022-07-23T05:27:52;7.30;;;6.35;;
5345;SDS011;2695;49.444;11.054;2022-07-23T05:30:20;7.07;;;6.47;;
5345;SDS011;2695;49.444;11.054;2022-07-23T05:32:48;17.77;;;6.10;;
5345;SDS011;2695;49.444;11.054;2022-07-23T05:35:16;8.25;;;6.25;;
5345;SDS011;2695;49.444;11.054;2022-07-23T05:37:44;6.25;;;5.65;;
5345;SDS011;2695;49.444;11.054;2022-07-23T05:40:12;12.35;;;5.80;;
5345;SDS011;2695;49.444;11.054;2022-07-23T05:42:42;5.38;;;4.53;;
5345;SDS011;2695;49.444;11.054;2022-07-23T05:45:10;6.40;;;5.53;;
5345;SDS011;2695;49.444;11.054;2022-07-23T05:47:39;6.15;;;5.30;;
5345;SDS011;2695;49.444;11.054;2022-07-23T05:50:08;10.00;;;5.38;;
5345;SDS011;2695;49.444;11.054;2022-07-23T05:52:37;5.35;;;3.78;;
5345;SDS011;2695;49.444;11.054;2022-07-23T05:55:05;5.47;;;4.30;;
5345;SDS011;2695;49.444;11.054;2022-07-23T05:57:35;4.53;;;4.07;;
5345;SDS011;2695;49.444;11.054;2022-07-23T06:00:05;4.60;;;4.20;;
5345;SDS011;2695;49.444;11.054;2022-07-23T06:02:35;5.70;;;4.72;;
5345;SDS011;2695;49.444;11.054;2022-07-23T06:05:04;4.88;;;4.47;;
5345;SDS011;2695;49.444;11.054;2022-07-23T06:07:34;5.38;;;4.60;;
5345;SDS011;2695;49.444;11.054;2022-07-23T06:10:02;6.80;;;4.30;;
5345;SDS011;2695;49.444;11.054;2022-07-23T06:12:31;4.10;;;3.70;;
5345;SDS011;2695;49.444;11.054;2022-07-23T06:14:59;4.32;;;3.92;;
5345;SDS011;2695;49.444;11.054;2022-07-23T06:17:28;5.00;;;4.50;;
5345;SDS011;2695;49.444;11.054;2022-07-23T06:19:56;4.63;;;4.22;;
5345;SDS011;2695;49.444;11.054;2022-07-23T06:22:24;4.97;;;4.47;;
5345;SDS011;2695;49.444;11.054;2022-07-23T06:24:52;5.68;;;4.55;;
5345;SDS011;2695;49.444;11.054;2022-07-23T06:27:20;4.88;;;4.47;;
5345;SDS011;2695;49.444;11.054;2022-07-23T06:29:51;4.63;;;4.32;;
5345;SDS011;2695;49.444;11.054;2022-07-23T06:32:20;7.80;;;4.38;;
5345;SDS011;2695;49.444;11.054;2022-07-23T06:34:49;4.28;;;3.88;;
5345;SDS011;2695;49.444;11.054;2022-07-23T06:37:17;5.80;;;4.32;;
5345;SDS011;2695;49.444;11.054;2022-07-23T06:39:45;4.85;;;4.38;;
5345;SDS011;2695;49.444;11.054;2022-07-23T06:42:14;4.00;;;3.70;;
5345;SDS011;2695;49.444;11.054;2022-07-23T06:44:42;5.03;;;4.47;;
5345;SDS011;2695;49.444;11.054;2022-07-23T06:47:10;6.25;;;4.85;;
5345;SDS011;2695;49.444;11.054;2022-07-23T06:49:37;5.10;;;4.70;;
5345;SDS011;2695;49.444;11.054;2022-07-23T06:52:08;4.65;;;4.25;;
5345;SDS011;2695;49.444;11.054;2022-07-23T06:54:36;5.45;;;5.03;;
5345;SDS011;2695;49.444;11.054;2022-07-23T06:57:04;6.38;;;4.35;;
5345;SDS011;2695;49.444;11.054;2022-07-23T06:59:33;5.18;;;4.68;;
5345;SDS011;2695;49.444;11.054;2022-07-23T07:02:02;4.97;;;4.45;;
5345;SDS011;2695;49.444;11.054;2022-07-23T07:04:30;6.32;;;5.30;;
5345;SDS011;2695;49.444;11.054;2022-07-23T07:06:59;7.28;;;5.38;;
5345;SDS011;2695;49.444;11.054;2022-07-23T07:09:28;8.90;;;5.72;;
5345;SDS011;2695;49.444;11.054;2022-07-23T07:11:56;5.50;;;4.93;;
5345;SDS011;2695;49.444;11.054;2022-07-23T07:14:24;8.02;;;5.13;;
5345;SDS011;2695;49.444;11.054;2022-07-23T07:16:52;6.07;;;5.10;;
5345;SDS011;2695;49.444;11.054;2022-07-23T07:19:20;9.30;;;4.90;;
5345;SDS011;2695;49.444;11.054;2022-07-23T07:21:48;6.95;;;5.30;;
5345;SDS011;2695;49.444;11.054;2022-07-23T07:24:16;9.85;;;6.10;;
5345;SDS011;2695;49.444;11.054;2022-07-23T07:26:46;8.15;;;6.28;;
5345;SDS011;2695;49.444;11.054;2022-07-23T07:29:14;7.32;;;6.60;;
5345;SDS011;2695;49.444;11.054;2022-07-23T07:31:42;10.30;;;6.00;;
5345;SDS011;2695;49.444;11.054;2022-07-23T07:34:11;8.07;;;6.85;;
5345;SDS011;2695;49.444;11.054;2022-07-23T07:36:42;8.20;;;6.45;;
5345;SDS011;2695;49.444;11.054;2022-07-23T07:39:10;8.05;;;5.50;;
5345;SDS011;2695;49.444;11.054;2022-07-23T07:41:39;7.40;;;6.70;;
5345;SDS011;2695;49.444;11.054;2022-07-23T07:44:08;7.32;;;5.90;;
5345;SDS011;2695;49.444;11.054;2022-07-23T07:46:36;9.80;;;6.30;;
5345;SDS011;2695;49.444;11.054;2022-07-23T07:49:05;8.70;;;6.68;;
5345;SDS011;2695;49.444;11.054;2022-07-23T07:51:41;18.35;;;7.93;;
5345;SDS011;2695;49.444;11.054;2022-07-23T07:54:10;17.40;;;7.93;;
5345;SDS011;2695;49.444;11.054;2022-07-23T07:56:39;12.38;;;7.15;;
5345;SDS011;2695;49.444;11.054;2022-07-23T07:59:08;9.82;;;6.95;;
5345;SDS011;2695;49.444;11.054;2022-07-23T08:01:37;12.45;;;7.10;;
5345;SDS011;2695;49.444;11.054;2022-07-23T08:04:05;10.45;;;7.20;;
5345;SDS011;2695;49.444;11.054;2022-07-23T08:06:33;10.38;;;8.35;;
5345;SDS011;2695;49.444;11.054;2022-07-23T08:09:01;8.15;;;7.20;;
5345;SDS011;2695;49.444;11.054;2022-07-23T08:11:30;9.75;;;7.88;;
5345;SDS011;2695;49.444;11.054;2022-07-23T08:13:58;11.65;;;7.90;;
5345;SDS011;2695;49.444;11.054;2022-07-23T08:16:28;8.80;;;7.80;;
5345;SDS011;2695;49.444;11.054;2022-07-23T08:19:16;10.60;;;7.10;;
5345;SDS011;2695;49.444;11.054;2022-07-23T08:21:44;11.02;;;7.45;;
5345;SDS011;2695;49.444;11.054;2022-07-23T08:24:12;9.98;;;7.65;;
5345;SDS011;2695;49.444;11.054;2022-07-23T08:26:40;13.13;;;7.28;;
5345;SDS011;2695;49.444;11.054;2022-07-23T08:29:08;9.55;;;6.90;;
5345;SDS011;2695;49.444;11.054;2022-07-23T08:31:38;10.07;;;7.07;;
5345;SDS011;2695;49.444;11.054;2022-07-23T08:34:06;6.97;;;6.05;;
5345;SDS011;2695;49.444;11.054;2022-07-23T08:36:35;12.02;;;7.25;;
5345;SDS011;2695;49.444;11.054;2022-07-23T08:39:03;17.08;;;7.93;;
5345;SDS011;2695;49.444;11.054;2022-07-23T08:41:31;11.73;;;7.93;;
5345;SDS011;2695;49.444;11.054;2022-07-23T08:43:59;10.85;;;8.18;;
5345;SDS011;2695;49.444;11.054;2022-07-23T08:46:29;11.48;;;6.20;;
5345;SDS011;2695;49.444;11.054;2022-07-23T08:48:58;9.32;;;6.63;;
5345;SDS011;2695;49.444;11.054;2022-07-23T08:51:27;6.82;;;6.22;;
5345;SDS011;2695;49.444;11.054;2022-07-23T08:53:56;12.55;;;5.97;;
5345;SDS011;2695;49.444;11.054;2022-07-23T08:56:25;6.50;;;5.68;;
5345;SDS011;2695;49.444;11.054;2022-07-23T08:58:53;8.20;;;6.43;;
5345;SDS011;2695;49.444;11.054;2022-07-23T09:01:21;7.60;;;5.88;;
5345;SDS011;2695;49.444;11.054;2022-07-23T09:03:49;6.72;;;5.95;;
5345;SDS011;2695;49.444;11.054;2022-07-23T09:06:19;6.47;;;5.78;;
5345;SDS011;2695;49.444;11.054;2022-07-23T09:08:47;8.82;;;5.22;;
5345;SDS011;2695;49.444;11.054;2022-07-23T09:11:15;6.50;;;5.88;;
5345;SDS011;2695;49.444;11.054;2022-07-23T09:13:46;7.68;;;6.07;;
5345;SDS011;2695;49.444;11.054;2022-07-23T09:16:16;9.80;;;5.87;;
5345;SDS011;2695;49.444;11.054;2022-07-23T09:18:46;6.97;;;5.50;;
5345;SDS011;2695;49.444;11.054;2022-07-23T09:21:20;5.87;;;5.27;;
5345;SDS011;2695;49.444;11.054;2022-07-23T09:23:51;8.20;;;5.80;;
5345;SDS011;2695;49.444;11.054;2022-07-23T09:26:23;8.80;;;5.23;;
5345;SDS011;2695;49.444;11.054;2022-07-23T09:29:10;5.43;;;4.83;;
5345;SDS011;2695;49.444;11.054;2022-07-23T09:31:44;12.10;;;5.40;;
5345;SDS011;2695;49.444;11.054;2022-07-23T09:34:15;7.83;;;5.50;;
5345;SDS011;2695;49.444;11.054;2022-07-23T09:36:46;7.43;;;4.60;;
5345;SDS011;2695;49.444;11.054;2022-07-23T09:39:15;8.67;;;5.00;;
5345;SDS011;2695;49.444;11.054;2022-07-23T09:41:51;8.20;;;6.00;;
5345;SDS011;2695;49.444;11.054;2022-07-23T09:44:20;5.60;;;4.93;;
5345;SDS011;2695;49.444;11.054;2022-07-23T09:46:57;6.37;;;4.97;;
5345;SDS011;2695;49.444;11.054;2022-07-23T09:49:27;7.00;;;4.87;;
5345;SDS011;2695;49.444;11.054;2022-07-23T09:51:59;6.37;;;5.37;;
5345;SDS011;2695;49.444;11.054;2022-07-23T09:54:29;8.17;;;5.60;;
5345;SDS011;2695;49.444;11.054;2022-07-23T09:57:01;10.40;;;5.83;;
5345;SDS011;2695;49.444;11.054;2022-07-23T09:59:33;13.53;;;6.50;;
5345;SDS011;2695;49.444;11.054;2022-07-23T10:02:04;7.40;;;5.00;;
5345;SDS011;2695;49.444;11.054;2022-07-23T10:04:33;6.93;;;5.60;;
5345;SDS011;2695;49.444;11.054;2022-07-23T10:07:05;6.83;;;6.07;;
5345;SDS011;2695;49.444;11.054;2022-07-23T10:09:37;10.17;;;7.47;;
5345;SDS011;2695;49.444;11.054;2022-07-23T10:12:09;8.10;;;6.47;;
5345;SDS011;2695;49.444;11.054;2022-07-23T10:14:45;10.40;;;5.93;;
5345;SDS011;2695;49.444;11.054;2022-07-23T10:17:14;9.27;;;6.00;;
5345;SDS011;2695;49.444;11.054;2022-07-23T10:19:43;14.67;;;7.27;;
5345;SDS011;2695;49.444;11.054;2022-07-23T10:22:18;8.47;;;6.07;;
5345;SDS011;2695;49.444;11.054;2022-07-23T10:24:50;9.40;;;5.90;;
5345;SDS011;2695;49.444;11.054;2022-07-23T10:27:39;9.80;;;7.00;;
5345;SDS011;2695;49.444;11.054;2022-07-23T10:30:19;11.87;;;7.47;;
5345;SDS011;2695;49.444;11.054;2022-07-23T10:32:56;9.40;;;7.00;;
5345;SDS011;2695;49.444;11.054;2022-07-23T10:35:37;10.27;;;6.07;;
5345;SDS011;2695;49.444;11.054;2022-07-23T10:38:13;8.50;;;6.33;;
5345;SDS011;2695;49.444;11.054;2022-07-23T10:40:55;8.10;;;6.53;;
5345;SDS011;2695;49.444;11.054;2022-07-23T10:43:24;11.10;;;6.67;;
5345;SDS011;2695;49.444;11.054;2022-07-23T10:45:53;9.00;;;6.13;;
5345;SDS011;2695;49.444;11.054;2022-07-23T10:48:22;10.10;;;7.63;;
5345;SDS011;2695;49.444;11.054;2022-07-23T10:51:05;8.43;;;7.00;;
5345;SDS011;2695;49.444;11.054;2022-07-23T10:53:55;7.70;;;6.80;;
5345;SDS011;2695;49.444;11.054;2022-07-23T11:02:36;10.27;;;6.80;;
5345;SDS011;2695;49.444;11.054;2022-07-23T11:05:07;10.40;;;6.80;;
5345;SDS011;2695;49.444;11.054;2022-07-23T11:07:36;9.30;;;7.17;;
5345;SDS011;2695;49.444;11.054;2022-07-23T11:10:35;8.83;;;6.87;;
5345;SDS011;2695;49.444;11.054;2022-07-23T11:16:15;6.83;;;6.13;;
5345;SDS011;2695;49.444;11.054;2022-07-23T11:19:04;8.60;;;6.00;;
5345;SDS011;2695;49.444;11.054;2022-07-23T11:24:20;8.20;;;6.50;;
5345;SDS011;2695;49.444;11.054;2022-07-23T11:26:52;9.20;;;5.38;;
5345;SDS011;2695;49.444;11.054;2022-07-23T11:29:38;7.15;;;5.68;;
5345;SDS011;2695;49.444;11.054;2022-07-23T11:32:22;8.75;;;5.95;;
5345;SDS011;2695;49.444;11.054;2022-07-23T11:35:19;13.25;;;6.75;;
5345;SDS011;2695;49.444;11.054;2022-07-23T11:37:49;8.50;;;6.32;;
5345;SDS011;2695;49.444;11.054;2022-07-23T11:40:25;10.93;;;6.32;;
5345;SDS011;2695;49.444;11.054;2022-07-23T11:42:57;6.30;;;5.20;;
5345;SDS011;2695;49.444;11.054;2022-07-23T11:45:30;6.43;;;5.55;;
5345;SDS011;2695;49.444;11.054;2022-07-23T11:48:00;12.77;;;6.38;;
5345;SDS011;2695;49.444;11.054;2022-07-23T11:50:29;6.30;;;5.70;;
5345;SDS011;2695;49.444;11.054;2022-07-23T11:52:57;6.40;;;5.22;;
5345;SDS011;2695;49.444;11.054;2022-07-23T11:55:25;6.70;;;5.47;;
5345;SDS011;2695;49.444;11.054;2022-07-23T11:57:56;10.40;;;5.85;;
5345;SDS011;2695;49.444;11.054;2022-07-23T12:00:26;6.13;;;5.38;;
5345;SDS011;2695;49.444;11.054;2022-07-23T12:02:56;8.60;;;5.78;;
5345;SDS011;2695;49.444;11.054;2022-07-23T12:05:28;8.18;;;5.50;;
5345;SDS011;2695;49.444;11.054;2022-07-23T12:07:58;6.18;;;5.18;;
5345;SDS011;2695;49.444;11.054;2022-07-23T12:10:28;6.10;;;5.50;;
5345;SDS011;2695;49.444;11.054;2022-07-23T12:13:02;5.90;;;5.30;;
5345;SDS011;2695;49.444;11.054;2022-07-23T12:15:32;6.22;;;5.03;;
5345;SDS011;2695;49.444;11.054;2022-07-23T12:18:04;7.68;;;5.38;;
5345;SDS011;2695;49.444;11.054;2022-07-23T12:20:33;7.10;;;5.82;;
5345;SDS011;2695;49.444;11.054;2022-07-23T12:23:04;6.60;;;6.00;;
5345;SDS011;2695;49.444;11.054;2022-07-23T12:25:35;7.60;;;6.45;;
5345;SDS011;2695;49.444;11.054;2022-07-23T12:28:06;7.32;;;6.18;;
5345;SDS011;2695;49.444;11.054;2022-07-23T12:30:37;7.55;;;6.53;;
5345;SDS011;2695;49.444;11.054;2022-07-23T12:33:07;8.20;;;6.72;;
5345;SDS011;2695;49.444;11.054;2022-07-23T12:35:37;6.18;;;5.57;;
5345;SDS011;2695;49.444;11.054;2022-07-23T12:38:08;8.23;;;6.53;;
5345;SDS011;2695;49.444;11.054;2022-07-23T12:40:41;7.50;;;6.68;;
5345;SDS011;2695;49.444;11.054;2022-07-23T12:43:17;8.50;;;6.20;;
5345;SDS011;2695;49.444;11.054;2022-07-23T12:45:48;9.13;;;5.60;;
5345;SDS011;2695;49.444;11.054;2022-07-23T12:48:20;6.15;;;5.45;;
5345;SDS011;2695;49.444;11.054;2022-07-23T12:50:53;9.98;;;6.28;;
5345;SDS011;2695;49.444;11.054;2022-07-23T12:53:23;6.47;;;5.28;;
5345;SDS011;2695;49.444;11.054;2022-07-23T12:55:57;12.95;;;5.78;;
5345;SDS011;2695;49.444;11.054;2022-07-23T12:58:43;7.90;;;6.03;;
5345;SDS011;2695;49.444;11.054;2022-07-23T13:01:26;8.85;;;5.10;;
5345;SDS011;2695;49.444;11.054;2022-07-23T13:04:01;8.95;;;6.07;;
5345;SDS011;2695;49.444;11.054;2022-07-23T13:06:38;6.32;;;5.45;;
5345;SDS011;2695;49.444;11.054;2022-07-23T13:09:10;6.38;;;5.05;;
5345;SDS011;2695;49.444;11.054;2022-07-23T13:11:41;7.43;;;6.70;;
5345;SDS011;2695;49.444;11.054;2022-07-23T13:14:11;6.50;;;5.50;;
5345;SDS011;2695;49.444;11.054;2022-07-23T13:16:39;6.57;;;5.85;;
5345;SDS011;2695;49.444;11.054;2022-07-23T13:19:08;7.35;;;5.88;;
5345;SDS011;2695;49.444;11.054;2022-07-23T13:21:38;7.90;;;5.70;;
5345;SDS011;2695;49.444;11.054;2022-07-23T13:24:08;9.13;;;5.60;;
5345;SDS011;2695;49.444;11.054;2022-07-23T13:26:38;9.32;;;7.82;;
5345;SDS011;2695;49.444;11.054;2022-07-23T13:29:07;16.13;;;12.82;;
5345;SDS011;2695;49.444;11.054;2022-07-23T13:31:37;17.58;;;14.68;;
5345;SDS011;2695;49.444;11.054;2022-07-23T13:34:06;12.43;;;11.07;;
5345;SDS011;2695;49.444;11.054;2022-07-23T13:36:34;10.32;;;7.60;;
5345;SDS011;2695;49.444;11.054;2022-07-23T13:39:03;12.20;;;9.38;;
5345;SDS011;2695;49.444;11.054;2022-07-23T13:41:34;10.45;;;8.90;;
5345;SDS011;2695;49.444;11.054;2022-07-23T13:44:03;8.65;;;7.75;;
5345;SDS011;2695;49.444;11.054;2022-07-23T13:46:32;8.30;;;6.50;;
5345;SDS011;2695;49.444;11.054;2022-07-23T13:49:02;7.72;;;6.50;;
5345;SDS011;2695;49.444;11.054;2022-07-23T13:51:32;6.95;;;6.25;;
5345;SDS011;2695;49.444;11.054;2022-07-23T13:54:00;12.02;;;9.40;;
5345;SDS011;2695;49.444;11.054;2022-07-23T13:56:29;6.07;;;5.45;;
5345;SDS011;2695;49.444;11.054;2022-07-23T13:58:56;11.68;;;6.15;;
5345;SDS011;2695;49.444;11.054;2022-07-23T14:01:25;8.43;;;6.93;;
5345;SDS011;2695;49.444;11.054;2022-07-23T14:04:05;6.95;;;6.35;;
5345;SDS011;2695;49.444;11.054;2022-07-23T14:06:33;6.45;;;5.85;;
5345;SDS011;2695;49.444;11.054;2022-07-23T14:09:02;9.68;;;6.63;;
5345;SDS011;2695;49.444;11.054;2022-07-23T14:11:35;7.70;;;5.82;;
5345;SDS011;2695;49.444;11.054;2022-07-23T14:14:08;6.97;;;5.97;;
5345;SDS011;2695;49.444;11.054;2022-07-23T14:16:36;7.63;;;6.75;;
5345;SDS011;2695;49.444;11.054;2022-07-23T14:19:14;6.63;;;5.93;;
5345;SDS011;2695;49.444;11.054;2022-07-23T14:21:42;8.07;;;5.53;;
5345;SDS011;2695;49.444;11.054;2022-07-23T14:24:11;9.38;;;6.32;;
5345;SDS011;2695;49.444;11.054;2022-07-23T14:26:39;6.88;;;6.10;;
5345;SDS011;2695;49.444;11.054;2022-07-23T14:29:08;9.18;;;7.55;;
5345;SDS011;2695;49.444;11.054;2022-07-23T14:31:37;7.82;;;6.68;;
5345;SDS011;2695;49.444;11.054;2022-07-23T14:34:07;7.05;;;6.35;;
5345;SDS011;2695;49.444;11.054;2022-07-23T14:36:35;9.57;;;7.80;;
5345;SDS011;2695;49.444;11.054;2022-07-23T14:39:05;8.95;;;7.40;;
5345;SDS011;2695;49.444;11.054;2022-07-23T14:41:36;13.25;;;6.53;;
5345;SDS011;2695;49.444;11.054;2022-07-23T14:44:21;6.93;;;6.22;;
5345;SDS011;2695;49.444;11.054;2022-07-23T14:46:57;7.10;;;5.55;;
5345;SDS011;2695;49.444;11.054;2022-07-23T14:49:45;11.00;;;7.72;;
5345;SDS011;2695;49.444;11.054;2022-07-23T14:52:32;7.40;;;6.60;;
5345;SDS011;2695;49.444;11.054;2022-07-23T14:55:00;11.80;;;6.88;;
5345;SDS011;2695;49.444;11.054;2022-07-23T14:57:31;8.43;;;6.82;;
5345;SDS011;2695;49.444;11.054;2022-07-23T15:00:00;8.68;;;7.30;;
5345;SDS011;2695;49.444;11.054;2022-07-23T15:02:28;13.50;;;6.40;;
5345;SDS011;2695;49.444;11.054;2022-07-23T15:05:00;8.48;;;6.60;;
5345;SDS011;2695;49.444;11.054;2022-07-23T15:07:32;10.48;;;8.32;;
5345;SDS011;2695;49.444;11.054;2022-07-23T15:10:01;8.18;;;6.65;;
5345;SDS011;2695;49.444;11.054;2022-07-23T15:12:30;8.70;;;7.00;;
5345;SDS011;2695;49.444;11.054;2022-07-23T15:14:58;10.95;;;6.50;;
5345;SDS011;2695;49.444;11.054;2022-07-23T15:17:26;8.82;;;6.60;;
5345;SDS011;2695;49.444;11.054;2022-07-23T15:19:54;8.88;;;6.70;;
5345;SDS011;2695;49.444;11.054;2022-07-23T15:22:24;10.65;;;6.10;;